sensor_id;sensor_type;location;lat;lon;timestamp;P1;durP1;ratioP1;P2;durP2;ratioP2
81714;SDS011;71125;44.066;2.982;2023-09-07T00:02:24;7.07;;;2.60;;
81714;SDS011;71125;44.066;2.982;2023-09-07T00:04:50;5.22;;;2.45;;
81714;SDS011;71125;44.066;2.982;2023-09-07T00:07:16;6.43;;;2.05;;
81714;SDS011;71125;44.066;2.982;2023-09-07T00:09:42;5.47;;;2.72;;
81714;SDS011;71125;44.066;2.982;2023-09-07T00:12:08;4.40;;;2.65;;
81714;SDS011;71125;44.066;2.982;2023-09-07T00:14:34;4.90;;;2.33;;
81714;SDS011;71125;44.066;2.982;2023-09-07T00:17:00;7.90;;;2.50;;
81714;SDS011;71125;44.066;2.982;2023-09-07T00:19:27;5.85;;;2.88;;
81714;SDS011;71125;44.066;2.982;2023-09-07T00:21:56;4.30;;;2.30;;
81714;SDS011;71125;44.066;2.982;2023-09-07T00:24:23;5.70;;;2.38;;
81714;SDS011;71125;44.066;2.982;2023-09-07T00:26:49;7.93;;;2.28;;
81714;SDS011;71125;44.066;2.982;2023-09-07T00:29:15;4.60;;;2.45;;
81714;SDS011;71125;44.066;2.982;2023-09-07T00:31:41;4.80;;;2.58;;
81714;SDS011;71125;44.066;2.982;2023-09-07T00:34:07;4.80;;;2.38;;
81714;SDS011;71125;44.066;2.982;2023-09-07T00:36:33;5.43;;;2.42;;
81714;SDS011;71125;44.066;2.982;2023-09-07T00:39:00;5.70;;;2.38;;
81714;SDS011;71125;44.066;2.982;2023-09-07T00:41:26;4.70;;;3.00;;
81714;SDS011;71125;44.066;2.982;2023-09-07T00:43:52;6.78;;;2.65;;
81714;SDS011;71125;44.066;2.982;2023-09-07T00:46:18;4.60;;;2.55;;
81714;SDS011;71125;44.066;2.982;2023-09-07T00:48:44;4.97;;;2.72;;
81714;SDS011;71125;44.066;2.982;2023-09-07T00:51:10;4.40;;;2.45;;
81714;SDS011;71125;44.066;2.982;2023-09-07T00:53:36;6.68;;;2.90;;
81714;SDS011;71125;44.066;2.982;2023-09-07T00:56:02;6.15;;;2.72;;
81714;SDS011;71125;44.066;2.982;2023-09-07T00:58:29;6.00;;;2.88;;
81714;SDS011;71125;44.066;2.982;2023-09-07T01:00:55;6.55;;;2.55;;
81714;SDS011;71125;44.066;2.982;2023-09-07T01:03:21;5.93;;;2.50;;
81714;SDS011;71125;44.066;2.982;2023-09-07T01:10:58;7.10;;;2.78;;
81714;SDS011;71125;44.066;2.982;2023-09-07T01:13:24;4.80;;;2.25;;
81714;SDS011;71125;44.066;2.982;2023-09-07T01:15:50;6.38;;;2.72;;
81714;SDS011;71125;44.066;2.982;2023-09-07T01:18:16;7.88;;;3.40;;
81714;SDS011;71125;44.066;2.982;2023-09-07T01:20:44;4.47;;;2.13;;
81714;SDS011;71125;44.066;2.982;2023-09-07T01:23:10;4.50;;;2.33;;
81714;SDS011;71125;44.066;2.982;2023-09-07T01:25:38;9.05;;;2.85;;
81714;SDS011;71125;44.066;2.982;2023-09-07T01:28:06;5.53;;;2.53;;
81714;SDS011;71125;44.066;2.982;2023-09-07T01:30:34;4.35;;;2.42;;
81714;SDS011;71125;44.066;2.982;2023-09-07T01:33:00;4.00;;;2.63;;
81714;SDS011;71125;44.066;2.982;2023-09-07T01:35:28;4.07;;;2.85;;
81714;SDS011;71125;44.066;2.982;2023-09-07T01:37:54;5.25;;;2.42;;
81714;SDS011;71125;44.066;2.982;2023-09-07T01:40:20;5.25;;;2.72;;
81714;SDS011;71125;44.066;2.982;2023-09-07T01:42:46;5.30;;;2.95;;
81714;SDS011;71125;44.066;2.982;2023-09-07T01:45:12;5.03;;;2.97;;
81714;SDS011;71125;44.066;2.982;2023-09-07T01:47:38;4.88;;;3.00;;
81714;SDS011;71125;44.066;2.982;2023-09-07T01:50:05;8.70;;;2.80;;
81714;SDS011;71125;44.066;2.982;2023-09-07T01:52:31;4.35;;;2.20;;
81714;SDS011;71125;44.066;2.982;2023-09-07T01:54:59;8.02;;;2.80;;
81714;SDS011;71125;44.066;2.982;2023-09-07T01:57:25;7.03;;;3.33;;
81714;SDS011;71125;44.066;2.982;2023-09-07T01:59:51;5.10;;;2.70;;
81714;SDS011;71125;44.066;2.982;2023-09-07T02:02:17;4.30;;;2.42;;
81714;SDS011;71125;44.066;2.982;2023-09-07T02:04:43;4.15;;;2.50;;
81714;SDS011;71125;44.066;2.982;2023-09-07T02:07:11;7.57;;;2.80;;
81714;SDS011;71125;44.066;2.982;2023-09-07T02:09:37;4.38;;;2.35;;
81714;SDS011;71125;44.066;2.982;2023-09-07T02:12:03;7.18;;;2.65;;
81714;SDS011;71125;44.066;2.982;2023-09-07T02:14:30;5.53;;;2.90;;
81714;SDS011;71125;44.066;2.982;2023-09-07T02:16:56;4.97;;;3.13;;
81714;SDS011;71125;44.066;2.982;2023-09-07T02:19:22;5.95;;;2.97;;
81714;SDS011;71125;44.066;2.982;2023-09-07T02:21:49;8.02;;;2.75;;
81714;SDS011;71125;44.066;2.982;2023-09-07T02:24:16;7.95;;;2.90;;
81714;SDS011;71125;44.066;2.982;2023-09-07T02:26:42;4.47;;;2.97;;
81714;SDS011;71125;44.066;2.982;2023-09-07T02:29:13;6.32;;;2.85;;
81714;SDS011;71125;44.066;2.982;2023-09-07T02:31:40;6.28;;;2.85;;
81714;SDS011;71125;44.066;2.982;2023-09-07T02:34:06;4.78;;;2.58;;
81714;SDS011;71125;44.066;2.982;2023-09-07T02:36:33;5.18;;;3.13;;
81714;SDS011;71125;44.066;2.982;2023-09-07T02:39:00;6.30;;;3.08;;
81714;SDS011;71125;44.066;2.982;2023-09-07T02:41:26;6.35;;;2.83;;
81714;SDS011;71125;44.066;2.982;2023-09-07T02:43:52;4.45;;;2.40;;
81714;SDS011;71125;44.066;2.982;2023-09-07T02:46:18;4.50;;;2.47;;
81714;SDS011;71125;44.066;2.982;2023-09-07T02:48:44;7.72;;;2.42;;
81714;SDS011;71125;44.066;2.982;2023-09-07T02:51:10;5.75;;;2.80;;
81714;SDS011;71125;44.066;2.982;2023-09-07T02:53:37;7.28;;;2.83;;
81714;SDS011;71125;44.066;2.982;2023-09-07T02:56:03;6.25;;;2.70;;
81714;SDS011;71125;44.066;2.982;2023-09-07T02:58:29;3.13;;;2.15;;
81714;SDS011;71125;44.066;2.982;2023-09-07T03:00:55;8.20;;;2.53;;
81714;SDS011;71125;44.066;2.982;2023-09-07T03:03:21;4.07;;;2.42;;
81714;SDS011;71125;44.066;2.982;2023-09-07T03:05:47;6.40;;;2.65;;
81714;SDS011;71125;44.066;2.982;2023-09-07T03:08:13;5.43;;;2.40;;
81714;SDS011;71125;44.066;2.982;2023-09-07T03:10:39;4.57;;;2.30;;
81714;SDS011;71125;44.066;2.982;2023-09-07T03:13:06;6.28;;;2.78;;
81714;SDS011;71125;44.066;2.982;2023-09-07T03:15:32;5.28;;;2.53;;
81714;SDS011;71125;44.066;2.982;2023-09-07T03:17:58;6.82;;;2.80;;
81714;SDS011;71125;44.066;2.982;2023-09-07T03:20:25;4.57;;;2.90;;
81714;SDS011;71125;44.066;2.982;2023-09-07T03:22:51;5.20;;;2.47;;
81714;SDS011;71125;44.066;2.982;2023-09-07T03:25:17;4.78;;;2.78;;
81714;SDS011;71125;44.066;2.982;2023-09-07T03:27:43;6.95;;;3.28;;
81714;SDS011;71125;44.066;2.982;2023-09-07T03:30:09;12.18;;;2.85;;
81714;SDS011;71125;44.066;2.982;2023-09-07T03:32:35;10.65;;;2.75;;
81714;SDS011;71125;44.066;2.982;2023-09-07T03:35:03;4.25;;;2.67;;
81714;SDS011;71125;44.066;2.982;2023-09-07T03:37:34;4.47;;;2.80;;
81714;SDS011;71125;44.066;2.982;2023-09-07T03:40:00;5.57;;;2.42;;
81714;SDS011;71125;44.066;2.982;2023-09-07T03:42:26;4.80;;;2.60;;
81714;SDS011;71125;44.066;2.982;2023-09-07T03:44:52;5.80;;;2.55;;
81714;SDS011;71125;44.066;2.982;2023-09-07T03:47:18;4.82;;;2.72;;
81714;SDS011;71125;44.066;2.982;2023-09-07T03:52:10;3.65;;;2.03;;
81714;SDS011;71125;44.066;2.982;2023-09-07T03:54:36;5.82;;;2.78;;
81714;SDS011;71125;44.066;2.982;2023-09-07T03:57:03;5.75;;;3.10;;
81714;SDS011;71125;44.066;2.982;2023-09-07T03:59:29;4.68;;;3.08;;
81714;SDS011;71125;44.066;2.982;2023-09-07T04:01:55;6.57;;;2.85;;
81714;SDS011;71125;44.066;2.982;2023-09-07T04:04:21;4.25;;;2.75;;
81714;SDS011;71125;44.066;2.982;2023-09-07T04:06:47;4.20;;;2.90;;
81714;SDS011;71125;44.066;2.982;2023-09-07T04:09:14;4.45;;;2.72;;
81714;SDS011;71125;44.066;2.982;2023-09-07T04:11:40;9.98;;;2.58;;
81714;SDS011;71125;44.066;2.982;2023-09-07T04:14:06;6.30;;;2.80;;
81714;SDS011;71125;44.066;2.982;2023-09-07T04:16:32;6.60;;;3.65;;
81714;SDS011;71125;44.066;2.982;2023-09-07T04:18:58;7.13;;;2.80;;
81714;SDS011;71125;44.066;2.982;2023-09-07T04:21:24;5.53;;;2.53;;
81714;SDS011;71125;44.066;2.982;2023-09-07T04:23:50;8.35;;;3.10;;
81714;SDS011;71125;44.066;2.982;2023-09-07T04:26:16;8.52;;;3.35;;
81714;SDS011;71125;44.066;2.982;2023-09-07T04:28:42;9.20;;;3.22;;
81714;SDS011;71125;44.066;2.982;2023-09-07T04:31:08;7.00;;;3.00;;
81714;SDS011;71125;44.066;2.982;2023-09-07T04:33:34;5.15;;;2.70;;
81714;SDS011;71125;44.066;2.982;2023-09-07T04:36:10;4.65;;;2.80;;
81714;SDS011;71125;44.066;2.982;2023-09-07T04:38:36;9.90;;;2.55;;
81714;SDS011;71125;44.066;2.982;2023-09-07T04:41:09;5.15;;;2.83;;
81714;SDS011;71125;44.066;2.982;2023-09-07T04:43:35;5.75;;;2.63;;
81714;SDS011;71125;44.066;2.982;2023-09-07T04:46:02;9.30;;;3.15;;
81714;SDS011;71125;44.066;2.982;2023-09-07T04:48:28;6.15;;;2.85;;
81714;SDS011;71125;44.066;2.982;2023-09-07T04:50:57;5.50;;;2.85;;
81714;SDS011;71125;44.066;2.982;2023-09-07T04:53:23;7.50;;;3.08;;
81714;SDS011;71125;44.066;2.982;2023-09-07T04:55:49;5.60;;;2.75;;
81714;SDS011;71125;44.066;2.982;2023-09-07T04:58:16;4.68;;;2.50;;
81714;SDS011;71125;44.066;2.982;2023-09-07T05:00:42;3.97;;;2.50;;
81714;SDS011;71125;44.066;2.982;2023-09-07T05:03:08;4.88;;;2.78;;
81714;SDS011;71125;44.066;2.982;2023-09-07T05:05:34;7.65;;;2.97;;
81714;SDS011;71125;44.066;2.982;2023-09-07T05:08:00;4.20;;;2.80;;
81714;SDS011;71125;44.066;2.982;2023-09-07T05:10:26;4.35;;;2.70;;
81714;SDS011;71125;44.066;2.982;2023-09-07T05:12:52;10.00;;;2.83;;
81714;SDS011;71125;44.066;2.982;2023-09-07T05:15:18;6.03;;;3.20;;
81714;SDS011;71125;44.066;2.982;2023-09-07T05:17:44;5.35;;;2.97;;
81714;SDS011;71125;44.066;2.982;2023-09-07T05:20:11;5.32;;;2.85;;
81714;SDS011;71125;44.066;2.982;2023-09-07T05:22:37;4.13;;;2.78;;
81714;SDS011;71125;44.066;2.982;2023-09-07T05:25:06;5.57;;;3.30;;
81714;SDS011;71125;44.066;2.982;2023-09-07T05:27:33;5.65;;;3.17;;
81714;SDS011;71125;44.066;2.982;2023-09-07T05:29:59;7.07;;;2.92;;
81714;SDS011;71125;44.066;2.982;2023-09-07T05:32:25;12.38;;;3.17;;
81714;SDS011;71125;44.066;2.982;2023-09-07T05:34:51;6.13;;;2.97;;
81714;SDS011;71125;44.066;2.982;2023-09-07T05:37:17;8.30;;;3.40;;
81714;SDS011;71125;44.066;2.982;2023-09-07T05:39:43;11.50;;;2.92;;
81714;SDS011;71125;44.066;2.982;2023-09-07T05:42:09;6.80;;;3.10;;
81714;SDS011;71125;44.066;2.982;2023-09-07T05:44:37;7.20;;;2.53;;
81714;SDS011;71125;44.066;2.982;2023-09-07T05:47:03;9.40;;;3.30;;
81714;SDS011;71125;44.066;2.982;2023-09-07T05:49:29;8.98;;;3.20;;
81714;SDS011;71125;44.066;2.982;2023-09-07T05:51:56;6.57;;;2.90;;
81714;SDS011;71125;44.066;2.982;2023-09-07T05:54:22;4.85;;;2.88;;
81714;SDS011;71125;44.066;2.982;2023-09-07T05:56:48;5.95;;;2.97;;
81714;SDS011;71125;44.066;2.982;2023-09-07T05:59:14;9.77;;;3.38;;
81714;SDS011;71125;44.066;2.982;2023-09-07T06:01:40;8.85;;;2.50;;
81714;SDS011;71125;44.066;2.982;2023-09-07T06:04:07;8.40;;;2.45;;
81714;SDS011;71125;44.066;2.982;2023-09-07T06:06:33;5.35;;;2.47;;
81714;SDS011;71125;44.066;2.982;2023-09-07T06:08:59;7.07;;;2.50;;
81714;SDS011;71125;44.066;2.982;2023-09-07T06:11:28;5.80;;;3.03;;
81714;SDS011;71125;44.066;2.982;2023-09-07T06:13:57;4.97;;;2.53;;
81714;SDS011;71125;44.066;2.982;2023-09-07T06:16:23;4.88;;;2.17;;
81714;SDS011;71125;44.066;2.982;2023-09-07T06:18:49;5.40;;;2.80;;
81714;SDS011;71125;44.066;2.982;2023-09-07T06:21:15;4.40;;;2.83;;
81714;SDS011;71125;44.066;2.982;2023-09-07T06:23:42;10.68;;;3.28;;
81714;SDS011;71125;44.066;2.982;2023-09-07T06:26:08;9.70;;;2.95;;
81714;SDS011;71125;44.066;2.982;2023-09-07T06:28:34;6.47;;;3.42;;
81714;SDS011;71125;44.066;2.982;2023-09-07T06:31:00;9.98;;;3.25;;
81714;SDS011;71125;44.066;2.982;2023-09-07T06:33:26;10.10;;;2.78;;
81714;SDS011;71125;44.066;2.982;2023-09-07T06:35:52;12.95;;;2.85;;
81714;SDS011;71125;44.066;2.982;2023-09-07T06:38:18;13.07;;;2.38;;
81714;SDS011;71125;44.066;2.982;2023-09-07T06:40:47;6.85;;;2.90;;
81714;SDS011;71125;44.066;2.982;2023-09-07T06:43:14;6.60;;;2.67;;
81714;SDS011;71125;44.066;2.982;2023-09-07T06:45:40;6.68;;;2.92;;
81714;SDS011;71125;44.066;2.982;2023-09-07T06:48:06;5.90;;;2.50;;
81714;SDS011;71125;44.066;2.982;2023-09-07T06:50:32;10.25;;;2.88;;
81714;SDS011;71125;44.066;2.982;2023-09-07T06:52:58;13.15;;;2.65;;
81714;SDS011;71125;44.066;2.982;2023-09-07T06:55:24;16.20;;;2.63;;
81714;SDS011;71125;44.066;2.982;2023-09-07T06:57:50;4.40;;;2.58;;
81714;SDS011;71125;44.066;2.982;2023-09-07T07:00:17;7.18;;;3.10;;
81714;SDS011;71125;44.066;2.982;2023-09-07T07:02:43;5.18;;;2.72;;
81714;SDS011;71125;44.066;2.982;2023-09-07T07:05:09;3.53;;;2.10;;
81714;SDS011;71125;44.066;2.982;2023-09-07T07:07:36;5.25;;;2.50;;
81714;SDS011;71125;44.066;2.982;2023-09-07T07:10:02;6.65;;;2.75;;
81714;SDS011;71125;44.066;2.982;2023-09-07T07:12:30;5.32;;;2.72;;
81714;SDS011;71125;44.066;2.982;2023-09-07T07:14:59;6.88;;;2.85;;
81714;SDS011;71125;44.066;2.982;2023-09-07T07:17:25;7.75;;;2.70;;
81714;SDS011;71125;44.066;2.982;2023-09-07T07:19:51;4.07;;;2.28;;
81714;SDS011;71125;44.066;2.982;2023-09-07T07:22:17;4.93;;;2.55;;
81714;SDS011;71125;44.066;2.982;2023-09-07T07:24:44;5.85;;;2.00;;
81714;SDS011;71125;44.066;2.982;2023-09-07T07:27:10;3.92;;;2.38;;
81714;SDS011;71125;44.066;2.982;2023-09-07T07:29:36;5.13;;;2.33;;
81714;SDS011;71125;44.066;2.982;2023-09-07T07:32:03;6.97;;;2.45;;
81714;SDS011;71125;44.066;2.982;2023-09-07T07:34:32;6.80;;;2.35;;
81714;SDS011;71125;44.066;2.982;2023-09-07T07:37:01;9.32;;;2.28;;
81714;SDS011;71125;44.066;2.982;2023-09-07T07:39:28;4.15;;;2.17;;
81714;SDS011;71125;44.066;2.982;2023-09-07T07:41:57;8.15;;;2.33;;
81714;SDS011;71125;44.066;2.982;2023-09-07T07:44:23;4.88;;;2.25;;
81714;SDS011;71125;44.066;2.982;2023-09-07T07:46:52;4.85;;;2.20;;
81714;SDS011;71125;44.066;2.982;2023-09-07T07:49:18;4.97;;;2.22;;
81714;SDS011;71125;44.066;2.982;2023-09-07T07:51:44;3.35;;;2.17;;
81714;SDS011;71125;44.066;2.982;2023-09-07T07:54:10;5.03;;;2.33;;
81714;SDS011;71125;44.066;2.982;2023-09-07T07:56:38;3.65;;;2.20;;
81714;SDS011;71125;44.066;2.982;2023-09-07T07:59:07;5.43;;;2.22;;
81714;SDS011;71125;44.066;2.982;2023-09-07T08:01:33;3.45;;;1.92;;
81714;SDS011;71125;44.066;2.982;2023-09-07T08:04:01;4.68;;;1.80;;
81714;SDS011;71125;44.066;2.982;2023-09-07T08:06:27;4.22;;;1.70;;
81714;SDS011;71125;44.066;2.982;2023-09-07T08:08:53;3.35;;;1.92;;
81714;SDS011;71125;44.066;2.982;2023-09-07T08:11:19;7.95;;;2.13;;
81714;SDS011;71125;44.066;2.982;2023-09-07T08:13:46;8.43;;;2.33;;
81714;SDS011;71125;44.066;2.982;2023-09-07T08:16:16;4.47;;;2.13;;
81714;SDS011;71125;44.066;2.982;2023-09-07T08:18:42;5.40;;;1.92;;
81714;SDS011;71125;44.066;2.982;2023-09-07T08:21:09;5.72;;;2.05;;
81714;SDS011;71125;44.066;2.982;2023-09-07T08:23:35;6.03;;;2.28;;
81714;SDS011;71125;44.066;2.982;2023-09-07T08:26:01;3.95;;;1.67;;
81714;SDS011;71125;44.066;2.982;2023-09-07T08:28:28;5.03;;;2.00;;
81714;SDS011;71125;44.066;2.982;2023-09-07T08:30:54;5.60;;;1.90;;
81714;SDS011;71125;44.066;2.982;2023-09-07T08:33:21;3.22;;;1.88;;
81714;SDS011;71125;44.066;2.982;2023-09-07T08:35:55;6.78;;;2.03;;
81714;SDS011;71125;44.066;2.982;2023-09-07T08:38:21;3.88;;;1.83;;
81714;SDS011;71125;44.066;2.982;2023-09-07T08:40:51;6.50;;;2.05;;
81714;SDS011;71125;44.066;2.982;2023-09-07T08:43:17;4.22;;;1.73;;
81714;SDS011;71125;44.066;2.982;2023-09-07T08:45:49;4.40;;;2.17;;
81714;SDS011;71125;44.066;2.982;2023-09-07T08:48:18;7.10;;;2.03;;
81714;SDS011;71125;44.066;2.982;2023-09-07T08:50:45;4.72;;;2.05;;
81714;SDS011;71125;44.066;2.982;2023-09-07T08:53:16;8.75;;;2.10;;
81714;SDS011;71125;44.066;2.982;2023-09-07T08:55:42;4.80;;;2.05;;
81714;SDS011;71125;44.066;2.982;2023-09-07T08:58:08;4.38;;;1.85;;
81714;SDS011;71125;44.066;2.982;2023-09-07T09:00:35;4.50;;;2.45;;
81714;SDS011;71125;44.066;2.982;2023-09-07T09:03:08;3.97;;;2.10;;
81714;SDS011;71125;44.066;2.982;2023-09-07T09:05:34;5.35;;;1.98;;
81714;SDS011;71125;44.066;2.982;2023-09-07T09:08:02;6.22;;;2.03;;
81714;SDS011;71125;44.066;2.982;2023-09-07T09:10:29;6.47;;;2.22;;
81714;SDS011;71125;44.066;2.982;2023-09-07T09:12:55;6.75;;;2.00;;
81714;SDS011;71125;44.066;2.982;2023-09-07T09:15:22;4.90;;;1.80;;
81714;SDS011;71125;44.066;2.982;2023-09-07T09:17:48;11.13;;;1.95;;
81714;SDS011;71125;44.066;2.982;2023-09-07T09:20:21;5.63;;;1.90;;
81714;SDS011;71125;44.066;2.982;2023-09-07T09:22:49;5.57;;;1.88;;
81714;SDS011;71125;44.066;2.982;2023-09-07T09:25:15;7.47;;;1.92;;
81714;SDS011;71125;44.066;2.982;2023-09-07T09:27:41;5.70;;;2.08;;
81714;SDS011;71125;44.066;2.982;2023-09-07T09:30:07;3.13;;;1.83;;
81714;SDS011;71125;44.066;2.982;2023-09-07T09:32:34;6.18;;;2.20;;
81714;SDS011;71125;44.066;2.982;2023-09-07T09:35:00;14.95;;;2.95;;
81714;SDS011;71125;44.066;2.982;2023-09-07T09:37:28;12.02;;;2.10;;
81714;SDS011;71125;44.066;2.982;2023-09-07T09:39:54;7.47;;;1.83;;
81714;SDS011;71125;44.066;2.982;2023-09-07T09:42:22;7.15;;;2.13;;
81714;SDS011;71125;44.066;2.982;2023-09-07T09:44:49;5.38;;;2.10;;
81714;SDS011;71125;44.066;2.982;2023-09-07T09:47:16;8.45;;;2.25;;
81714;SDS011;71125;44.066;2.982;2023-09-07T09:49:43;9.77;;;2.20;;
81714;SDS011;71125;44.066;2.982;2023-09-07T09:52:09;4.22;;;1.88;;
81714;SDS011;71125;44.066;2.982;2023-09-07T09:54:39;5.65;;;1.90;;
81714;SDS011;71125;44.066;2.982;2023-09-07T09:57:05;4.47;;;1.60;;
81714;SDS011;71125;44.066;2.982;2023-09-07T09:59:31;6.28;;;1.63;;
81714;SDS011;71125;44.066;2.982;2023-09-07T10:01:58;2.97;;;1.50;;
81714;SDS011;71125;44.066;2.982;2023-09-07T10:04:26;3.08;;;1.45;;
81714;SDS011;71125;44.066;2.982;2023-09-07T10:07:00;2.58;;;1.35;;
81714;SDS011;71125;44.066;2.982;2023-09-07T10:09:30;4.13;;;2.03;;
81714;SDS011;71125;44.066;2.982;2023-09-07T10:14:24;3.35;;;1.67;;
81714;SDS011;71125;44.066;2.982;2023-09-07T10:16:51;3.03;;;1.55;;
81714;SDS011;71125;44.066;2.982;2023-09-07T10:19:23;3.47;;;1.40;;
81714;SDS011;71125;44.066;2.982;2023-09-07T10:21:50;5.25;;;1.83;;
81714;SDS011;71125;44.066;2.982;2023-09-07T10:27:07;3.15;;;1.40;;
81714;SDS011;71125;44.066;2.982;2023-09-07T10:29:40;2.55;;;1.33;;
81714;SDS011;71125;44.066;2.982;2023-09-07T10:32:07;1.55;;;1.05;;
81714;SDS011;71125;44.066;2.982;2023-09-07T10:34:35;2.00;;;1.23;;
81714;SDS011;71125;44.066;2.982;2023-09-07T10:37:04;2.22;;;1.33;;
81714;SDS011;71125;44.066;2.982;2023-09-07T10:39:33;2.78;;;1.42;;
81714;SDS011;71125;44.066;2.982;2023-09-07T10:41:59;2.33;;;1.55;;
81714;SDS011;71125;44.066;2.982;2023-09-07T10:44:26;4.65;;;1.25;;
81714;SDS011;71125;44.066;2.982;2023-09-07T10:46:56;1.88;;;1.27;;
81714;SDS011;71125;44.066;2.982;2023-09-07T10:49:23;3.35;;;1.70;;
81714;SDS011;71125;44.066;2.982;2023-09-07T10:51:49;2.97;;;1.52;;
81714;SDS011;71125;44.066;2.982;2023-09-07T10:54:16;2.80;;;1.63;;
81714;SDS011;71125;44.066;2.982;2023-09-07T10:56:45;3.95;;;1.50;;
81714;SDS011;71125;44.066;2.982;2023-09-07T10:59:14;3.08;;;1.60;;
81714;SDS011;71125;44.066;2.982;2023-09-07T11:01:41;1.52;;;1.00;;
81714;SDS011;71125;44.066;2.982;2023-09-07T11:04:07;5.10;;;1.50;;
81714;SDS011;71125;44.066;2.982;2023-09-07T11:06:36;1.33;;;0.93;;
81714;SDS011;71125;44.066;2.982;2023-09-07T11:09:02;3.67;;;1.33;;
81714;SDS011;71125;44.066;2.982;2023-09-07T11:11:34;4.05;;;1.50;;
81714;SDS011;71125;44.066;2.982;2023-09-07T11:14:04;3.38;;;1.45;;
81714;SDS011;71125;44.066;2.982;2023-09-07T11:16:30;2.45;;;1.23;;
81714;SDS011;71125;44.066;2.982;2023-09-07T11:18:56;2.33;;;1.30;;
81714;SDS011;71125;44.066;2.982;2023-09-07T11:21:23;2.90;;;1.10;;
81714;SDS011;71125;44.066;2.982;2023-09-07T11:23:51;3.40;;;1.48;;
81714;SDS011;71125;44.066;2.982;2023-09-07T11:26:17;3.70;;;1.20;;
81714;SDS011;71125;44.066;2.982;2023-09-07T11:28:45;5.25;;;1.40;;
81714;SDS011;71125;44.066;2.982;2023-09-07T11:31:11;3.53;;;1.30;;
81714;SDS011;71125;44.066;2.982;2023-09-07T11:33:37;2.33;;;1.20;;
81714;SDS011;71125;44.066;2.982;2023-09-07T11:36:04;2.95;;;1.70;;
81714;SDS011;71125;44.066;2.982;2023-09-07T11:38:34;1.67;;;1.20;;
81714;SDS011;71125;44.066;2.982;2023-09-07T11:41:01;2.40;;;1.30;;
81714;SDS011;71125;44.066;2.982;2023-09-07T11:43:28;1.90;;;1.20;;
81714;SDS011;71125;44.066;2.982;2023-09-07T11:45:54;3.53;;;1.30;;
81714;SDS011;71125;44.066;2.982;2023-09-07T11:48:20;1.83;;;1.13;;
81714;SDS011;71125;44.066;2.982;2023-09-07T11:50:46;2.25;;;1.25;;
81714;SDS011;71125;44.066;2.982;2023-09-07T11:53:12;3.63;;;1.33;;
81714;SDS011;71125;44.066;2.982;2023-09-07T11:55:38;1.48;;;1.08;;
81714;SDS011;71125;44.066;2.982;2023-09-07T11:58:06;2.67;;;1.40;;
81714;SDS011;71125;44.066;2.982;2023-09-07T12:00:32;2.30;;;1.40;;
81714;SDS011;71125;44.066;2.982;2023-09-07T12:02:58;3.03;;;1.40;;
81714;SDS011;71125;44.066;2.982;2023-09-07T12:05:25;2.90;;;1.25;;
81714;SDS011;71125;44.066;2.982;2023-09-07T12:07:51;2.20;;;1.25;;
81714;SDS011;71125;44.066;2.982;2023-09-07T12:10:17;3.17;;;1.67;;
81714;SDS011;71125;44.066;2.982;2023-09-07T12:12:43;7.05;;;1.70;;
81714;SDS011;71125;44.066;2.982;2023-09-07T12:15:09;3.28;;;1.30;;
81714;SDS011;71125;44.066;2.982;2023-09-07T12:17:39;2.42;;;1.20;;
81714;SDS011;71125;44.066;2.982;2023-09-07T12:20:05;1.40;;;1.08;;
81714;SDS011;71125;44.066;2.982;2023-09-07T12:22:35;2.08;;;1.38;;
81714;SDS011;71125;44.066;2.982;2023-09-07T12:25:03;1.83;;;1.35;;
81714;SDS011;71125;44.066;2.982;2023-09-07T12:27:31;2.50;;;1.20;;
81714;SDS011;71125;44.066;2.982;2023-09-07T12:29:58;2.72;;;1.05;;
81714;SDS011;71125;44.066;2.982;2023-09-07T12:32:24;1.67;;;1.25;;
81714;SDS011;71125;44.066;2.982;2023-09-07T12:34:50;3.00;;;1.20;;
81714;SDS011;71125;44.066;2.982;2023-09-07T12:37:19;2.30;;;1.20;;
81714;SDS011;71125;44.066;2.982;2023-09-07T12:39:48;1.85;;;1.02;;
81714;SDS011;71125;44.066;2.982;2023-09-07T12:42:14;4.53;;;1.40;;
81714;SDS011;71125;44.066;2.982;2023-09-07T12:44:40;1.70;;;1.20;;
81714;SDS011;71125;44.066;2.982;2023-09-07T12:47:06;4.75;;;1.25;;
81714;SDS011;71125;44.066;2.982;2023-09-07T12:49:32;3.17;;;1.25;;
81714;SDS011;71125;44.066;2.982;2023-09-07T12:52:01;3.00;;;1.30;;
81714;SDS011;71125;44.066;2.982;2023-09-07T12:54:33;2.00;;;1.00;;
81714;SDS011;71125;44.066;2.982;2023-09-07T12:57:00;2.53;;;1.30;;
81714;SDS011;71125;44.066;2.982;2023-09-07T12:59:26;2.20;;;1.35;;
81714;SDS011;71125;44.066;2.982;2023-09-07T13:01:52;2.25;;;1.35;;
81714;SDS011;71125;44.066;2.982;2023-09-07T13:04:20;3.03;;;1.20;;
81714;SDS011;71125;44.066;2.982;2023-09-07T13:06:46;2.38;;;1.50;;
81714;SDS011;71125;44.066;2.982;2023-09-07T13:09:12;1.60;;;1.20;;
81714;SDS011;71125;44.066;2.982;2023-09-07T13:11:39;2.53;;;1.33;;
81714;SDS011;71125;44.066;2.982;2023-09-07T13:14:05;5.80;;;1.50;;
81714;SDS011;71125;44.066;2.982;2023-09-07T13:16:33;2.97;;;1.30;;
81714;SDS011;71125;44.066;2.982;2023-09-07T13:18:59;2.55;;;1.38;;
81714;SDS011;71125;44.066;2.982;2023-09-07T13:21:25;2.72;;;1.35;;
81714;SDS011;71125;44.066;2.982;2023-09-07T13:23:51;2.85;;;1.40;;
81714;SDS011;71125;44.066;2.982;2023-09-07T13:26:17;2.53;;;1.20;;
81714;SDS011;71125;44.066;2.982;2023-09-07T13:28:43;7.43;;;1.70;;
81714;SDS011;71125;44.066;2.982;2023-09-07T13:31:09;10.43;;;1.52;;
81714;SDS011;71125;44.066;2.982;2023-09-07T13:33:36;2.75;;;1.30;;
81714;SDS011;71125;44.066;2.982;2023-09-07T13:36:02;1.90;;;1.33;;
81714;SDS011;71125;44.066;2.982;2023-09-07T13:38:28;4.65;;;1.60;;
81714;SDS011;71125;44.066;2.982;2023-09-07T13:40:54;5.15;;;1.45;;
81714;SDS011;71125;44.066;2.982;2023-09-07T13:43:20;6.57;;;1.60;;
81714;SDS011;71125;44.066;2.982;2023-09-07T13:45:46;2.25;;;1.50;;
81714;SDS011;71125;44.066;2.982;2023-09-07T13:48:12;6.05;;;2.90;;
81714;SDS011;71125;44.066;2.982;2023-09-07T13:50:39;3.63;;;1.23;;
81714;SDS011;71125;44.066;2.982;2023-09-07T13:53:05;3.50;;;1.55;;
81714;SDS011;71125;44.066;2.982;2023-09-07T13:55:31;3.45;;;1.48;;
81714;SDS011;71125;44.066;2.982;2023-09-07T13:57:57;19.00;;;1.75;;
81714;SDS011;71125;44.066;2.982;2023-09-07T14:00:23;2.72;;;1.40;;
81714;SDS011;71125;44.066;2.982;2023-09-07T14:02:49;25.63;;;2.47;;
81714;SDS011;71125;44.066;2.982;2023-09-07T14:05:15;3.33;;;1.50;;
81714;SDS011;71125;44.066;2.982;2023-09-07T14:07:41;4.97;;;1.98;;
81714;SDS011;71125;44.066;2.982;2023-09-07T14:10:07;5.30;;;1.90;;
81714;SDS011;71125;44.066;2.982;2023-09-07T14:12:33;13.93;;;1.50;;
81714;SDS011;71125;44.066;2.982;2023-09-07T14:14:59;3.05;;;1.42;;
81714;SDS011;71125;44.066;2.982;2023-09-07T14:17:25;2.25;;;1.67;;
81714;SDS011;71125;44.066;2.982;2023-09-07T14:19:51;2.42;;;1.30;;
81714;SDS011;71125;44.066;2.982;2023-09-07T14:22:17;4.15;;;1.40;;
81714;SDS011;71125;44.066;2.982;2023-09-07T14:24:43;2.30;;;1.25;;
81714;SDS011;71125;44.066;2.982;2023-09-07T14:27:09;4.95;;;1.80;;
81714;SDS011;71125;44.066;2.982;2023-09-07T14:29:35;2.55;;;1.60;;
81714;SDS011;71125;44.066;2.982;2023-09-07T14:32:02;2.65;;;1.50;;
81714;SDS011;71125;44.066;2.982;2023-09-07T14:34:29;2.95;;;1.40;;
81714;SDS011;71125;44.066;2.982;2023-09-07T14:36:55;2.10;;;1.40;;
81714;SDS011;71125;44.066;2.982;2023-09-07T14:39:21;2.92;;;1.30;;
81714;SDS011;71125;44.066;2.982;2023-09-07T14:41:50;1.73;;;1.10;;
81714;SDS011;71125;44.066;2.982;2023-09-07T14:44:20;1.95;;;1.30;;
81714;SDS011;71125;44.066;2.982;2023-09-07T14:46:46;1.50;;;1.02;;
81714;SDS011;71125;44.066;2.982;2023-09-07T14:49:14;3.25;;;1.20;;
81714;SDS011;71125;44.066;2.982;2023-09-07T14:51:42;3.30;;;1.40;;
81714;SDS011;71125;44.066;2.982;2023-09-07T14:54:09;2.63;;;1.45;;
81714;SDS011;71125;44.066;2.982;2023-09-07T14:56:35;2.10;;;1.25;;
81714;SDS011;71125;44.066;2.982;2023-09-07T14:59:02;2.38;;;1.40;;